Time;durP1;ratioP1;P1;durP2;ratioP2;P2;SDS_P1;SDS_P2;PMS_P1;PMS_P2;Temp;Humidity;BMP_temperature;BMP_pressure;BME280_temperature;BME280_humidity;BME280_pressure;Samples;Min_cycle;Max_cycle;Signal;HPM_P1;HPM_P2
2021/05/31 05:04:20;;;;;;;13.48;7.10;;;7.20;33.00;;;;;;4920057;29;20115;-85
2021/05/31 05:10:09;;;;;;;14.57;6.97;;;7.50;33.70;;;;;;4919936;29;20039;-85
2021/05/31 05:15:57;;;;;;;11.52;6.10;;;7.70;33.60;;;;;;4919694;29;20175;-82
2021/05/31 05:21:45;;;;;;;12.10;6.28;;;7.90;34.00;;;;;;4919714;29;20080;-87
2021/05/31 05:27:35;;;;;;;11.95;5.97;;;8.10;34.10;;;;;;4919314;29;20039;-86
2021/05/31 05:33:24;;;;;;;11.82;5.88;;;8.30;34.70;;;;;;4919214;29;20520;-85
2021/05/31 05:45:34;;;;;;;11.10;5.88;;;8.50;35.00;;;;;;4919276;29;20035;-85
2021/05/31 05:51:23;;;;;;;10.65;5.38;;;8.70;35.40;;;;;;4918974;29;20032;-85
2021/05/31 05:57:12;;;;;;;10.23;5.88;;;8.90;35.50;;;;;;4918786;29;20408;-86
2021/05/31 06:03:02;;;;;;;10.75;5.35;;;9.20;36.00;;;;;;4918902;29;20055;-86
2021/05/31 06:08:51;;;;;;;11.20;5.78;;;9.50;36.20;;;;;;4918701;29;20066;-85
2021/05/31 06:14:40;;;;;;;10.23;5.63;;;9.60;36.30;;;;;;4918793;29;20393;-85
2021/05/31 06:20:29;;;;;;;11.18;5.57;;;9.80;36.90;;;;;;4918458;29;20035;-88
2021/05/31 06:26:17;;;;;;;10.05;5.28;;;10.10;37.30;;;;;;4918118;29;20035;-84
2021/05/31 06:32:05;;;;;;;9.82;4.70;;;10.30;37.30;;;;;;4918196;29;20116;-86
2021/05/31 06:37:54;;;;;;;9.80;5.05;;;10.50;37.50;;;;;;4917913;29;20060;-86
2021/05/31 06:43:42;;;;;;;9.18;4.50;;;10.90;37.90;;;;;;4918191;29;20030;-84
2021/05/31 06:49:31;;;;;;;9.00;4.60;;;11.20;37.70;;;;;;4918213;29;20111;-85
2021/05/31 06:55:21;;;;;;;7.72;3.80;;;11.50;38.10;;;;;;4917680;29;20416;-85
2021/05/31 07:04:46;;;;;;;8.85;4.30;;;12.20;38.20;;;;;;4936901;29;20046;-85
2021/05/31 07:10:34;;;;;;;7.18;3.55;;;12.30;38.60;;;;;;4936538;29;20133;-85
2021/05/31 07:16:22;;;;;;;6.97;3.40;;;12.70;38.90;;;;;;4936497;29;20099;-85
2021/05/31 07:22:19;;;;;;;6.28;3.08;;;13.10;39.00;;;;;;4936452;29;20384;-85
2021/05/31 07:28:08;;;;;;;8.27;3.28;;;13.30;38.50;;;;;;4936241;29;20035;-86
2021/05/31 07:33:57;;;;;;;8.15;3.53;;;13.40;38.60;;;;;;4936282;29;20067;-85
2021/05/31 07:39:45;;;;;;;7.10;3.50;;;13.70;39.10;;;;;;4940970;29;20039;-84
2021/05/31 07:45:34;;;;;;;7.30;3.50;;;13.90;39.10;;;;;;4940265;29;20079;-84
2021/05/31 07:51:25;;;;;;;8.27;3.90;;;14.30;39.50;;;;;;4939987;29;20104;-84
2021/05/31 07:57:15;;;;;;;6.90;3.10;;;14.80;39.90;;;;;;4939854;29;20079;-84
2021/05/31 08:06:51;;;;;;;6.60;3.10;;;14.80;39.00;;;;;;4939999;29;20216;-84
2021/05/31 08:12:40;;;;;;;7.13;3.33;;;15.00;39.20;;;;;;4939574;29;20559;-84
2021/05/31 08:18:28;;;;;;;6.63;3.00;;;15.40;39.40;;;;;;4939454;29;20054;-84
2021/05/31 08:24:19;;;;;;;5.40;2.70;;;15.50;39.70;;;;;;4939637;29;20026;-84
2021/05/31 08:30:07;;;;;;;7.90;3.25;;;15.80;39.40;;;;;;4939316;29;20086;-84
2021/05/31 08:35:56;;;;;;;14.13;3.42;;;16.10;40.00;;;;;;4939020;29;20035;-84
2021/05/31 08:41:44;;;;;;;5.43;2.58;;;16.40;40.00;;;;;;4939489;29;20035;-83
2021/05/31 08:47:39;;;;;;;5.07;2.70;;;16.80;40.50;;;;;;4939197;29;20398;-84
2021/05/31 08:53:29;;;;;;;5.15;2.55;;;17.00;40.00;;;;;;4938902;29;20548;-84
2021/05/31 08:59:18;;;;;;;5.55;2.70;;;17.20;40.40;;;;;;4939146;29;20023;-84
2021/05/31 09:09:01;;;;;;;5.20;2.22;;;17.50;40.30;;;;;;4938801;29;20385;-84
2021/05/31 09:15:08;;;;;;;5.65;2.10;;;17.70;40.30;;;;;;4938721;29;20071;-83
2021/05/31 09:20:57;;;;;;;3.83;2.30;;;17.70;40.10;;;;;;4938575;29;20404;-83
2021/05/31 09:26:59;;;;;;;4.97;2.60;;;18.00;40.10;;;;;;4938277;29;20035;-83
2021/05/31 09:32:52;;;;;;;4.45;2.20;;;18.20;40.00;;;;;;4938169;29;20083;-84
2021/05/31 09:38:48;;;;;;;148.05;16.85;;;18.50;40.30;;;;;;4938019;29;20043;-83
2021/05/31 09:44:37;;;;;;;7.70;2.58;;;18.80;40.00;;;;;;4937975;29;20027;-83
2021/05/31 09:50:32;;;;;;;5.57;2.40;;;19.00;39.70;;;;;;4937732;29;20034;-84
2021/05/31 09:56:21;;;;;;;4.70;2.20;;;19.20;39.50;;;;;;4937622;29;20567;-83
2021/05/31 10:02:14;;;;;;;3.30;2.17;;;19.50;39.90;;;;;;4937716;29;20392;-85
2021/05/31 10:12:03;;;;;;;4.28;2.33;;;20.00;39.20;;;;;;4940229;29;20383;-85
2021/05/31 10:17:54;;;;;;;3.35;2.20;;;20.30;39.40;;;;;;4939458;29;20087;-85
2021/05/31 10:23:43;;;;;;;4.22;2.22;;;20.70;39.30;;;;;;4939013;29;20569;-85
2021/05/31 10:29:33;;;;;;;4.88;2.42;;;20.90;38.60;;;;;;4938568;29;20038;-85
2021/05/31 10:35:27;;;;;;;4.70;2.20;;;21.20;38.70;;;;;;4939439;29;20047;-85
2021/05/31 10:41:20;;;;;;;4.82;2.30;;;21.30;38.00;;;;;;4938074;29;20034;-85
2021/05/31 10:47:13;;;;;;;4.05;2.20;;;21.60;37.20;;;;;;4936836;29;20433;-85
2021/05/31 10:53:02;;;;;;;5.13;1.90;;;21.80;37.90;;;;;;4936987;29;20126;-84
2021/05/31 10:58:54;;;;;;;4.13;2.25;;;22.10;38.00;;;;;;4937215;29;20047;-88
2021/05/31 11:04:42;;;;;;;3.97;2.22;;;22.80;38.20;;;;;;4936931;29;20082;-88
2021/05/31 11:14:36;;;;;;;4.28;1.77;;;24.20;37.90;;;;;;4936903;29;20046;-87
2021/05/31 11:20:29;;;;;;;40.50;7.43;;;25.60;39.20;;;;;;4936605;29;20091;-88
2021/05/31 11:26:19;;;;;;;12.15;2.78;;;27.20;38.90;;;;;;4936371;29;20075;-85
2021/05/31 11:32:10;;;;;;;3.22;2.00;;;27.20;38.20;;;;;;4937076;29;20098;-87
2021/05/31 11:37:59;;;;;;;3.00;1.90;;;29.20;39.20;;;;;;4936751;29;20074;-86
2021/05/31 11:43:50;;;;;;;4.60;2.05;;;29.60;35.20;;;;;;4936582;29;20090;-87
2021/05/31 11:49:39;;;;;;;4.38;2.20;;;29.80;37.10;;;;;;4936575;29;20499;-87
2021/05/31 11:55:29;;;;;;;3.78;1.90;;;32.60;37.50;;;;;;4936065;29;20067;-86
2021/05/31 12:01:17;;;;;;;3.30;1.95;;;33.10;35.20;;;;;;4936112;29;20054;-89
2021/05/31 12:07:09;;;;;;;2.88;1.92;;;34.80;34.60;;;;;;4936135;29;20389;-88
2021/05/31 12:17:03;;;;;;;2.25;1.80;;;34.90;28.30;;;;;;4935948;29;20078;-87
2021/05/31 12:22:52;;;;;;;3.22;1.98;;;36.40;32.20;;;;;;4936039;29;20116;-88
2021/05/31 12:28:41;;;;;;;4.05;1.85;;;38.50;33.70;;;;;;4939512;29;20062;-91
2021/05/31 12:34:32;;;;;;;4.35;2.10;;;40.10;31.50;;;;;;4939534;29;20086;-91
2021/05/31 12:40:21;;;;;;;3.22;2.00;;;41.10;29.90;;;;;;4939489;29;20027;-89
2021/05/31 12:46:20;;;;;;;3.35;1.92;;;42.60;28.80;;;;;;4939372;29;20058;-89
2021/05/31 12:52:08;;;;;;;3.38;2.00;;;42.70;29.50;;;;;;4938972;29;20031;-87
2021/05/31 12:57:58;;;;;;;2.33;2.00;;;43.50;29.20;;;;;;4938731;29;20408;-90
2021/05/31 13:03:55;;;;;;;2.10;1.90;;;44.10;25.50;;;;;;4938687;29;20492;-90
2021/05/31 13:09:44;;;;;;;2.67;2.10;;;43.50;26.70;;;;;;4938805;29;20056;-90
2021/05/31 13:19:35;;;;;;;4.72;2.80;;;45.10;26.70;;;;;;4938693;29;20444;-87
2021/05/31 13:25:24;;;;;;;3.38;2.30;;;46.10;26.20;;;;;;4938550;29;20376;-87
2021/05/31 13:31:15;;;;;;;2.42;2.22;;;47.30;25.90;;;;;;4939078;29;20082;-88
2021/05/31 13:37:13;;;;;;;2.97;2.30;;;47.60;24.50;;;;;;4938294;29;20157;-88
2021/05/31 13:43:07;;;;;;;;;;;48.20;23.60;;;;;;4938835;29;20031;-87
2021/05/31 13:48:56;;;;;;;;;;;48.80;22.60;;;;;;4938475;29;20043;-87
2021/05/31 13:54:44;;;;;;;3.55;2.50;;;48.20;23.80;;;;;;4937844;29;20054;-88
2021/05/31 14:00:34;;;;;;;4.07;2.70;;;49.70;24.10;;;;;;4938012;29;20043;-88
2021/05/31 14:06:22;;;;;;;3.40;2.78;;;50.80;22.90;;;;;;4937590;29;20035;-88
2021/05/31 14:12:11;;;;;;;3.17;2.88;;;51.90;22.60;;;;;;4937499;29;20058;-88
2021/05/31 14:21:58;;;;;;;3.65;2.90;;;52.60;21.20;;;;;;4938193;29;20050;-90
2021/05/31 14:27:47;;;;;;;2.20;1.90;;;49.50;19.30;;;;;;4937527;29;20042;-90
2021/05/31 14:33:36;;;;;;;2.20;2.08;;;46.70;20.70;;;;;;4937606;29;20078;-89
2021/05/31 14:39:25;;;;;;;;;;;49.90;21.20;;;;;;4938164;29;20162;-90
2021/05/31 14:45:14;;;;;;;4.07;2.67;;;51.20;20.60;;;;;;4937299;29;20078;-88
2021/05/31 14:51:12;;;;;;;5.00;2.60;;;52.20;20.00;;;;;;4936740;29;20042;-88
2021/05/31 14:57:01;;;;;;;4.80;2.60;;;51.30;19.50;;;;;;4936766;29;20554;-89
2021/05/31 15:02:50;;;;;;;3.30;2.75;;;52.60;19.70;;;;;;4937011;29;20079;-89
2021/05/31 15:08:40;;;;;;;4.07;2.40;;;52.40;19.10;;;;;;4936829;29;20054;-88
2021/05/31 15:14:33;;;;;;;2.35;2.10;;;52.90;19.00;;;;;;4936881;29;20086;-87
2021/05/31 15:24:23;;;;;;;3.78;2.30;;;52.80;18.50;;;;;;4936834;29;20106;-87
2021/05/31 15:30:13;;;;;;;3.08;1.92;;;51.80;18.50;;;;;;4936535;29;20042;-88
2021/05/31 15:36:02;;;;;;;2.73;1.90;;;48.50;16.50;;;;;;4936351;29;20389;-88
2021/05/31 15:41:51;;;;;;;2.72;2.03;;;46.60;18.30;;;;;;4936636;29;20074;-87
2021/05/31 15:47:41;;;;;;;2.22;1.90;;;50.30;19.20;;;;;;4937498;29;20071;-85
2021/05/31 15:53:30;;;;;;;2.40;2.20;;;52.00;18.40;;;;;;4937057;29;20031;-86
2021/05/31 15:59:19;;;;;;;2.85;2.10;;;52.30;18.30;;;;;;4941500;29;20103;-87
2021/05/31 16:05:09;;;;;;;1.83;1.73;;;52.20;18.00;;;;;;4939909;29;20042;-86
2021/05/31 16:10:59;;;;;;;2.63;2.00;;;51.10;17.60;;;;;;4939858;29;20066;-87
2021/05/31 16:16:50;;;;;;;1.77;1.67;;;48.60;15.70;;;;;;4939936;29;20034;-87
2021/05/31 16:26:39;;;;;;;4.18;1.80;;;45.40;17.70;;;;;;4939490;29;20062;-86
2021/05/31 16:32:29;;;;;;;4.40;1.70;;;46.00;17.00;;;;;;4939239;29;20030;-87
2021/05/31 16:38:17;;;;;;;1.70;1.60;;;44.20;16.90;;;;;;4939269;29;20499;-87
2021/05/31 16:44:06;;;;;;;1.73;1.63;;;44.10;17.00;;;;;;4939308;29;20047;-86
2021/05/31 16:49:55;;;;;;;2.58;1.70;;;43.70;16.90;;;;;;4939202;29;20034;-86
2021/05/31 16:55:44;;;;;;;1.90;1.70;;;43.00;16.80;;;;;;4938867;29;20031;-87
2021/05/31 17:01:32;;;;;;;3.42;1.83;;;42.10;16.70;;;;;;4938983;29;20055;-87
2021/05/31 17:07:20;;;;;;;3.95;1.73;;;42.00;17.30;;;;;;4938633;29;20050;-84
2021/05/31 17:19:21;;;;;;;2.45;1.70;;;40.00;16.80;;;;;;4938737;29;20085;-86
2021/05/31 17:28:46;;;;;;;2.15;1.73;;;38.30;16.70;;;;;;4938688;29;20403;-90
2021/05/31 17:34:35;;;;;;;2.05;1.73;;;36.90;16.90;;;;;;4938632;29;20059;-90
2021/05/31 17:40:26;;;;;;;3.40;2.65;;;35.40;16.80;;;;;;4938147;29;20083;-91
2021/05/31 17:46:15;;;;;;;2.40;2.17;;;34.60;17.00;;;;;;4938321;29;20043;-91
2021/05/31 17:52:04;;;;;;;4.97;2.65;;;33.20;16.50;;;;;;4938721;29;20083;-90
2021/05/31 17:57:55;;;;;;;2.15;1.80;;;31.10;16.40;;;;;;4937916;29;20047;-90
2021/05/31 18:03:44;;;;;;;3.25;1.88;;;29.40;16.60;;;;;;4937630;29;20043;-86
2021/05/31 18:09:37;;;;;;;2.20;1.70;;;28.50;16.70;;;;;;4937689;29;20052;-88
2021/05/31 18:15:26;;;;;;;4.75;1.80;;;27.30;16.60;;;;;;4938206;29;20077;-91
2021/05/31 18:21:14;;;;;;;5.03;2.17;;;26.40;16.80;;;;;;4937109;29;20086;-91
2021/05/31 18:30:57;;;;;;;3.08;2.00;;;25.20;17.00;;;;;;4937455;29;20046;-89
2021/05/31 18:36:48;;;;;;;2.95;1.88;;;24.60;17.20;;;;;;4937413;29;20038;-88
2021/05/31 18:42:38;;;;;;;3.25;1.90;;;24.00;17.40;;;;;;4936981;29;20044;-89
2021/05/31 18:48:28;;;;;;;5.13;1.90;;;23.50;17.50;;;;;;4937099;29;20118;-89
2021/05/31 18:54:17;;;;;;;4.35;2.10;;;22.90;17.50;;;;;;4936963;29;20027;-88
2021/05/31 19:00:08;;;;;;;3.78;2.17;;;22.40;17.70;;;;;;4937031;29;20068;-90
2021/05/31 19:06:00;;;;;;;4.90;2.40;;;21.90;17.90;;;;;;4937552;29;20031;-88
2021/05/31 19:11:50;;;;;;;5.03;2.55;;;21.40;18.00;;;;;;4936746;29;20039;-91
2021/05/31 19:17:44;;;;;;;5.75;2.50;;;20.90;18.30;;;;;;4936430;29;20038;-87
2021/05/31 19:23:34;;;;;;;4.72;2.30;;;20.60;18.50;;;;;;4936099;29;20030;-87
2021/05/31 19:33:23;;;;;;;5.55;2.40;;;19.80;18.60;;;;;;4936264;29;20065;-86
2021/05/31 19:39:12;;;;;;;6.30;2.60;;;19.40;18.90;;;;;;4935959;29;20119;-83
2021/05/31 19:45:00;;;;;;;4.80;2.22;;;19.00;19.10;;;;;;4936062;29;20038;-84
2021/05/31 19:50:48;;;;;;;5.88;2.50;;;18.60;19.30;;;;;;4936199;29;20054;-83
2021/05/31 19:56:59;;;;;;;7.40;2.40;;;18.20;19.50;;;;;;4936201;29;20046;-85
2021/05/31 20:02:48;;;;;;;3.95;2.30;;;17.90;19.70;;;;;;4935962;29;20043;-84
2021/05/31 20:08:36;;;;;;;5.57;2.60;;;17.60;19.90;;;;;;4936088;29;20038;-84
2021/05/31 20:14:25;;;;;;;4.88;2.72;;;17.20;20.00;;;;;;4935947;29;20027;-87
2021/05/31 20:20:21;;;;;;;5.90;2.80;;;16.80;20.20;;;;;;4935749;29;20511;-84
2021/05/31 20:26:16;;;;;;;7.13;2.90;;;16.60;19.70;;;;;;4935943;29;19914;-87
2021/05/31 20:36:07;;;;;;;7.05;2.95;;;16.20;20.50;;;;;;4935780;29;20495;-86
2021/05/31 20:41:57;;;;;;;8.13;3.38;;;15.90;21.00;;;;;;4935646;29;20031;-86
2021/05/31 20:47:47;;;;;;;9.27;3.03;;;15.70;21.20;;;;;;4939182;29;20534;-86
2021/05/31 20:53:35;;;;;;;7.53;3.50;;;15.50;21.50;;;;;;4938964;29;20046;-86
2021/05/31 20:59:23;;;;;;;8.85;3.50;;;15.20;21.60;;;;;;4938977;29;20102;-85
2021/05/31 21:05:11;;;;;;;8.52;3.42;;;15.00;21.90;;;;;;4938915;29;20094;-84
2021/05/31 21:11:04;;;;;;;9.38;3.83;;;14.70;22.20;;;;;;4938711;29;20035;-85
2021/05/31 21:16:57;;;;;;;7.60;3.15;;;14.60;22.40;;;;;;4938538;29;20042;-84
2021/05/31 21:22:57;;;;;;;7.57;3.75;;;14.30;22.50;;;;;;4938619;29;20035;-83
2021/05/31 21:28:46;;;;;;;7.85;3.63;;;14.10;22.80;;;;;;4938379;29;20532;-83
2021/05/31 21:38:39;;;;;;;8.05;3.70;;;13.80;22.90;;;;;;4938284;29;20062;-83
2021/05/31 21:44:27;;;;;;;10.10;4.10;;;13.50;23.30;;;;;;4937932;29;20094;-83
2021/05/31 21:50:16;;;;;;;7.50;3.70;;;13.30;23.60;;;;;;4938043;29;20043;-83
2021/05/31 21:56:05;;;;;;;9.48;4.40;;;13.20;23.80;;;;;;4936853;29;20062;-85
2021/05/31 22:01:54;;;;;;;9.43;4.38;;;13.00;24.00;;;;;;4937750;29;20034;-85
2021/05/31 22:07:44;;;;;;;9.63;3.67;;;12.80;24.20;;;;;;4937730;29;20388;-85
2021/05/31 22:13:36;;;;;;;7.90;3.80;;;12.60;24.30;;;;;;4937279;29;20034;-85
2021/05/31 22:19:29;;;;;;;9.38;3.70;;;12.40;24.60;;;;;;4937247;29;20492;-85
2021/05/31 22:25:18;;;;;;;8.23;3.65;;;12.30;24.80;;;;;;4937209;29;20142;-85
2021/05/31 22:31:11;;;;;;;7.50;3.63;;;12.10;24.90;;;;;;4937346;29;20094;-86
2021/05/31 22:41:12;;;;;;;10.32;4.40;;;11.80;25.00;;;;;;4936994;29;20442;-84
2021/05/31 23:17:35;;;;;;;8.90;4.10;;;10.90;26.00;;;;;;4936391;29;20062;-84
2021/05/31 23:23:24;;;;;;;11.63;4.55;;;10.80;26.20;;;;;;4936332;29;20029;-85
2021/05/31 23:29:12;;;;;;;8.50;4.20;;;10.70;26.40;;;;;;4936557;29;20515;-85
2021/05/31 23:35:01;;;;;;;8.57;3.97;;;10.60;26.50;;;;;;4936261;29;20496;-85
2021/05/31 23:40:51;;;;;;;9.45;4.68;;;10.50;26.60;;;;;;4936376;29;20170;-84
2021/05/31 23:46:39;;;;;;;9.68;5.03;;;10.30;26.70;;;;;;4936137;29;20054;-84
2021/05/31 23:52:28;;;;;;;9.55;4.95;;;10.20;27.00;;;;;;4936368;29;20389;-83
2021/05/31 23:58:17;;;;;;;9.93;4.80;;;10.00;27.00;;;;;;4935956;29;20077;-83
